Time;durP1;ratioP1;P1;durP2;ratioP2;P2;SDS_P1;SDS_P2;PMS_P1;PMS_P2;Temp;Humidity;BMP_temperature;BMP_pressure;BME280_temperature;BME280_humidity;BME280_pressure;Samples;Min_cycle;Max_cycle;Signal;HPM_P1;HPM_P2
2022/01/23 00:00:26;;;;;;;0.28;0.10;;;3.00;88.10;;;;;;21139898;28;20420;-45
2022/01/23 00:10:29;;;;;;;0.03;0.00;;;2.70;88.90;;;;;;21139070;28;20061;-43
2022/01/23 00:20:32;;;;;;;0.57;0.00;;;2.70;89.30;;;;;;21070841;28;20052;-43
2022/01/23 00:30:39;;;;;;;0.20;0.00;;;2.80;89.40;;;;;;21053217;28;20089;-45
2022/01/23 00:40:43;;;;;;;3.83;0.10;;;2.80;90.10;;;;;;21052536;28;20283;-43
2022/01/23 00:50:46;;;;;;;0.15;0.00;;;2.70;90.30;;;;;;21049711;28;20044;-43
2022/01/23 01:00:48;;;;;;;0.25;0.00;;;2.80;90.00;;;;;;21051127;28;20028;-44
2022/01/23 01:31:31;;;;;;;0.05;0.00;;;0.90;92.10;;;;;;21049298;28;20089;-44
2022/01/23 01:41:39;;;;;;;4.30;0.30;;;0.20;93.50;;;;;;21065254;28;20036;-43
2022/01/23 01:51:44;;;;;;;0.30;0.00;;;0.10;94.10;;;;;;21048846;28;20036;-44
2022/01/23 02:54:18;;;;;;;0.40;0.00;;;-0.40;97.40;;;;;;21160751;28;20035;-44
2022/01/23 03:04:21;;;;;;;0.22;0.08;;;-0.30;97.50;;;;;;21128199;28;20085;-42
2022/01/23 03:14:55;;;;;;;2.28;0.10;;;-0.30;97.70;;;;;;21129606;28;20051;-43
2022/01/23 03:25:13;;;;;;;1.13;0.15;;;-0.20;97.70;;;;;;21126339;28;20383;-44
2022/01/23 03:35:19;;;;;;;1.70;0.10;;;-0.20;97.90;;;;;;21141104;28;20031;-43
2022/01/23 03:55:27;;;;;;;0.73;0.13;;;0.10;97.30;;;;;;21140789;28;20035;-43
2022/01/23 04:05:33;;;;;;;2.33;0.20;;;0.20;97.10;;;;;;21123437;28;20031;-43
2022/01/23 04:15:47;;;;;;;0.13;0.00;;;0.30;97.20;;;;;;21122103;28;20047;-43
2022/01/23 05:07:17;;;;;;;0.77;0.10;;;1.20;94.10;;;;;;21118562;28;19919;-44
2022/01/23 05:17:43;;;;;;;2.47;0.28;;;1.00;94.90;;;;;;21124154;28;20039;-43
2022/01/23 05:27:50;;;;;;;1.15;0.08;;;0.90;95.30;;;;;;21133580;28;20101;-43
2022/01/23 05:37:53;;;;;;;0.00;0.00;;;0.70;95.60;;;;;;21133054;28;20032;-43
2022/01/23 05:47:59;;;;;;;1.17;0.30;;;1.50;94.00;;;;;;21132773;28;20180;-43
2022/01/23 05:58:20;;;;;;;;;;;1.90;93.10;;;;;;21142263;28;20036;-43
2022/01/23 06:08:28;;;;;;;0.77;0.10;;;2.20;92.20;;;;;;21149177;28;19910;-44
2022/01/23 06:18:32;;;;;;;0.00;0.00;;;2.50;91.50;;;;;;21148278;28;20395;-44
2022/01/23 06:28:59;;;;;;;0.30;0.03;;;2.50;91.10;;;;;;21148151;28;20081;-43
2022/01/23 06:39:04;;;;;;;2.08;0.10;;;2.60;90.90;;;;;;21147064;28;20065;-43
2022/01/23 06:49:09;;;;;;;0.05;0.00;;;2.60;90.60;;;;;;21129617;28;20043;-44
2022/01/23 06:59:14;;;;;;;2.28;0.00;;;2.50;91.20;;;;;;21145502;28;20092;-44
2022/01/23 07:09:24;;;;;;;0.03;0.00;;;2.20;91.30;;;;;;21144471;28;20081;-44
2022/01/23 07:19:46;;;;;;;0.88;0.00;;;2.40;91.00;;;;;;21143381;28;20073;-44
2022/01/23 07:29:50;;;;;;;1.17;0.10;;;2.70;89.50;;;;;;21127598;28;20061;-45
2022/01/23 07:39:52;;;;;;;4.03;0.10;;;3.00;88.90;;;;;;21141396;28;20436;-43
2022/01/23 07:50:03;;;;;;;2.38;0.80;;;3.10;88.10;;;;;;21141495;28;20538;-44
2022/01/23 08:00:22;;;;;;;2.65;0.55;;;3.30;86.90;;;;;;21141398;28;20036;-44
2022/01/23 08:10:25;;;;;;;0.57;0.10;;;3.40;86.60;;;;;;21139424;28;20061;-45
2022/01/23 08:20:28;;;;;;;1.02;0.22;;;3.50;86.80;;;;;;21070600;28;20484;-43
2022/01/23 08:30:31;;;;;;;3.03;0.20;;;3.30;89.50;;;;;;21071777;28;20089;-44
2022/01/23 08:40:47;;;;;;;2.42;0.30;;;3.20;90.30;;;;;;21056656;28;20035;-44
2022/01/23 08:50:51;;;;;;;2.67;0.10;;;3.20;90.70;;;;;;21055683;28;20449;-44
2022/01/23 09:00:53;;;;;;;3.75;0.20;;;3.20;91.40;;;;;;21037281;28;20083;-44
2022/01/23 09:10:58;;;;;;;1.15;0.10;;;3.30;91.10;;;;;;21021442;28;20372;-44
2022/01/23 09:21:02;;;;;;;0.40;0.00;;;3.80;86.30;;;;;;20969594;28;20060;-44
2022/01/23 09:31:05;;;;;;;1.48;0.38;;;4.60;82.70;;;;;;21027739;28;20090;-44
2022/01/23 09:41:09;;;;;;;0.68;0.28;;;4.80;86.60;;;;;;21052624;28;20467;-43
2022/01/23 09:51:13;;;;;;;1.08;0.20;;;4.30;87.20;;;;;;21035955;28;20075;-44
2022/01/23 10:01:16;;;;;;;2.83;0.08;;;4.30;89.40;;;;;;20983469;28;20098;-45
2022/01/23 10:11:19;;;;;;;0.55;0.10;;;5.80;86.70;;;;;;21061413;28;20484;-44
2022/01/23 10:21:23;;;;;;;0.50;0.00;;;7.20;76.60;;;;;;21004228;28;20450;-44
2022/01/23 10:31:26;;;;;;;0.17;0.00;;;7.70;70.10;;;;;;20967164;28;20067;-44
2022/01/23 10:51:36;;;;;;;3.22;0.40;;;7.80;64.10;;;;;;21058010;28;20032;-44
2022/01/23 11:01:57;;;;;;;0.65;0.20;;;8.10;74.30;;;;;;21060457;28;20491;-45
2022/01/23 11:12:04;;;;;;;1.48;0.40;;;8.50;75.20;;;;;;21059365;28;20399;-44
2022/01/23 11:22:14;;;;;;;0.70;0.40;;;8.40;74.10;;;;;;21058947;28;20441;-44
2022/01/23 11:32:19;;;;;;;1.87;0.47;;;8.60;72.80;;;;;;21058178;28;20102;-44
2022/01/23 12:03:19;;;;;;;2.83;1.08;;;9.60;71.10;;;;;;21055584;28;20036;-46
2022/01/23 12:24:06;;;;;;;3.65;1.70;;;9.20;73.40;;;;;;21037366;28;20112;-45
2022/01/23 12:34:09;;;;;;;4.18;2.03;;;9.20;74.90;;;;;;21053441;28;20032;-45
2022/01/23 12:44:25;;;;;;;7.82;3.50;;;9.00;74.40;;;;;;21053101;28;20058;-45
2022/01/23 12:54:30;;;;;;;6.20;3.45;;;8.70;75.00;;;;;;21052770;28;20093;-43
2022/01/23 13:04:39;;;;;;;10.60;6.10;;;8.70;75.90;;;;;;21051635;28;20119;-44
2022/01/23 13:35:42;;;;;;;14.05;7.63;;;7.30;78.80;;;;;;21048025;28;20188;-44
2022/01/23 14:06:45;;;;;;;20.15;10.18;;;5.90;83.80;;;;;;21046679;28;20040;-44
2022/01/23 14:16:54;;;;;;;22.80;11.85;;;5.70;90.10;;;;;;21017959;28;20056;-43
2022/01/23 14:27:06;;;;;;;23.98;12.38;;;5.40;91.50;;;;;;21063548;28;20028;-45
2022/01/23 14:37:09;;;;;;;21.60;10.30;;;5.10;92.60;;;;;;21062161;28;20036;-44
2022/01/23 14:47:12;;;;;;;32.03;13.77;;;4.80;92.60;;;;;;21061401;28;20032;-43
2022/01/23 14:57:17;;;;;;;21.52;10.10;;;4.70;93.90;;;;;;21060517;28;20480;-44
2022/01/23 15:07:20;;;;;;;16.55;8.07;;;4.40;94.00;;;;;;21060112;28;20098;-46
2022/01/23 15:17:25;;;;;;;17.92;5.85;;;4.20;92.50;;;;;;21059505;28;20056;-43
2022/01/23 15:27:27;;;;;;;5.88;2.45;;;4.00;90.90;;;;;;21058679;28;20040;-45
2022/01/23 15:37:30;;;;;;;1.02;0.40;;;3.50;87.50;;;;;;21057721;28;20085;-43
2022/01/23 15:47:34;;;;;;;2.13;0.85;;;2.60;86.30;;;;;;21056722;28;20028;-44
2022/01/23 15:57:39;;;;;;;1.85;0.73;;;2.00;89.00;;;;;;21056557;28;20657;-43
2022/01/23 16:07:43;;;;;;;7.72;0.40;;;1.60;90.70;;;;;;21055906;28;20097;-43
2022/01/23 16:17:47;;;;;;;1.10;0.28;;;1.30;90.80;;;;;;21053831;28;20052;-43
2022/01/23 16:27:50;;;;;;;0.82;0.10;;;0.90;90.10;;;;;;21053570;28;20097;-43
2022/01/23 16:37:54;;;;;;;1.45;0.15;;;0.80;90.70;;;;;;21052414;28;20040;-43
2022/01/23 16:47:59;;;;;;;1.45;0.25;;;0.60;91.10;;;;;;21052284;28;20040;-44
2022/01/23 16:58:03;;;;;;;0.28;0.10;;;0.50;90.30;;;;;;21051647;28;20097;-46
2022/01/23 17:08:06;;;;;;;0.15;0.10;;;0.60;90.00;;;;;;21038034;28;20404;-51
2022/01/23 17:18:09;;;;;;;0.43;0.10;;;0.40;90.00;;;;;;21050610;28;20488;-56
2022/01/23 17:28:12;;;;;;;4.18;0.20;;;0.40;90.20;;;;;;21049052;28;20036;-57
2022/01/23 17:38:17;;;;;;;0.20;0.10;;;0.40;89.90;;;;;;21036668;28;20515;-51
2022/01/23 17:58:31;;;;;;;1.83;0.98;;;0.80;87.10;;;;;;21020958;28;20047;-49
2022/01/23 18:08:34;;;;;;;0.47;0.20;;;0.90;88.20;;;;;;21029860;28;20121;-51
2022/01/23 18:18:37;;;;;;;3.10;0.90;;;1.00;86.10;;;;;;20928918;28;20448;-51
2022/01/23 18:28:39;;;;;;;4.70;1.95;;;0.90;85.80;;;;;;20867394;28;20095;-55
2022/01/23 18:38:42;;;;;;;0.15;0.10;;;0.90;84.50;;;;;;20922029;28;20033;-55
2022/01/23 18:48:44;;;;;;;0.30;0.10;;;1.20;84.30;;;;;;20921776;28;20033;-57
2022/01/23 18:58:54;;;;;;;0.30;0.20;;;1.10;84.50;;;;;;20879961;28;20037;-57
2022/01/23 19:09:09;;;;;;;0.07;0.00;;;1.00;84.20;;;;;;20901971;28;20458;-53
2022/01/23 19:19:11;;;;;;;0.40;0.20;;;0.80;84.30;;;;;;21002909;28;20075;-57
2022/01/23 19:29:14;;;;;;;0.38;0.10;;;0.90;82.80;;;;;;20978308;28;20037;-55
2022/01/23 19:39:16;;;;;;;0.20;0.10;;;0.90;82.10;;;;;;20997713;28;20032;-56
2022/01/23 19:49:24;;;;;;;0.80;0.17;;;0.80;83.50;;;;;;21034316;28;20067;-54
2022/01/23 19:59:32;;;;;;;1.05;0.55;;;0.60;83.40;;;;;;20991707;28;20385;-53
2022/01/23 20:09:41;;;;;;;1.00;0.40;;;0.70;87.10;;;;;;20973949;28;20082;-52
2022/01/23 20:19:43;;;;;;;2.55;0.50;;;0.40;88.40;;;;;;20971340;28;20114;-55
2022/01/23 20:29:46;;;;;;;0.63;0.30;;;0.10;89.10;;;;;;20971926;28;20036;-51
2022/01/23 20:39:49;;;;;;;0.73;0.30;;;0.30;88.10;;;;;;20995123;28;20373;-51
2022/01/23 20:49:54;;;;;;;3.63;0.60;;;0.20;89.10;;;;;;20972232;28;20024;-49
2022/01/23 20:59:57;;;;;;;2.53;0.52;;;0.10;90.50;;;;;;20969107;28;20032;-58
2022/01/23 21:10:01;;;;;;;0.40;0.20;;;0.10;90.10;;;;;;20983898;28;20097;-53
2022/01/23 21:20:30;;;;;;;0.43;0.30;;;0.10;90.00;;;;;;21056083;28;20121;-61
2022/01/23 21:40:54;;;;;;;1.30;0.70;;;-0.20;90.20;;;;;;21017728;28;20043;-62
2022/01/23 21:50:57;;;;;;;1.85;0.60;;;-0.50;92.00;;;;;;21048953;28;20549;-60
2022/01/23 22:01:00;;;;;;;0.85;0.43;;;-0.70;92.10;;;;;;21048270;28;20121;-57
2022/01/23 22:11:11;;;;;;;0.73;0.40;;;-0.90;92.10;;;;;;20978144;28;20165;-60
2022/01/23 22:21:14;;;;;;;2.10;0.70;;;-0.90;91.80;;;;;;20971012;28;20049;-59
2022/01/23 22:31:16;;;;;;;1.70;0.70;;;-1.10;92.30;;;;;;21083710;28;20329;-57
2022/01/23 22:41:28;;;;;;;2.20;0.70;;;-1.10;92.70;;;;;;21084915;28;20039;-60
2022/01/23 22:51:31;;;;;;;2.92;0.68;;;-1.30;93.20;;;;;;21072798;28;20097;-63
2022/01/23 23:01:35;;;;;;;1.27;0.68;;;-1.30;93.40;;;;;;21044531;28;20387;-52
2022/01/23 23:11:38;;;;;;;3.00;1.60;;;-1.30;94.00;;;;;;21060361;28;20105;-50
2022/01/23 23:21:46;;;;;;;11.43;4.35;;;-1.30;94.60;;;;;;21058486;28;20093;-54
2022/01/23 23:31:49;;;;;;;0.50;0.20;;;-1.50;96.90;;;;;;21072114;28;20036;-45
2022/01/23 23:41:56;;;;;;;1.90;0.70;;;-1.80;94.60;;;;;;21103343;28;20036;-44
2022/01/23 23:51:58;;;;;;;22.85;8.20;;;-1.50;95.30;;;;;;21062972;28;20036;-45
